sensor_id;sensor_type;location;lat;lon;timestamp;P1;durP1;ratioP1;P2;durP2;ratioP2
21488;SDS011;10906;45.194;5.684;2023-08-30T04:00:57;3.25;;;2.30;;
21488;SDS011;10906;45.194;5.684;2023-08-30T04:03:41;2.80;;;2.05;;
21488;SDS011;10906;45.194;5.684;2023-08-30T04:09:10;4.80;;;2.47;;
21488;SDS011;10906;45.194;5.684;2023-08-30T04:11:54;4.47;;;2.30;;
21488;SDS011;10906;45.194;5.684;2023-08-30T04:14:39;4.70;;;1.90;;
21488;SDS011;10906;45.194;5.684;2023-08-30T04:17:23;4.07;;;2.28;;
21488;SDS011;10906;45.194;5.684;2023-08-30T04:20:08;3.40;;;2.22;;
21488;SDS011;10906;45.194;5.684;2023-08-30T04:22:54;3.47;;;2.30;;
21488;SDS011;10906;45.194;5.684;2023-08-30T04:25:40;3.95;;;2.33;;
21488;SDS011;10906;45.194;5.684;2023-08-30T04:28:24;3.28;;;2.35;;
21488;SDS011;10906;45.194;5.684;2023-08-30T04:31:10;2.72;;;2.08;;
21488;SDS011;10906;45.194;5.684;2023-08-30T04:33:55;3.70;;;2.78;;
21488;SDS011;10906;45.194;5.684;2023-08-30T04:36:39;3.60;;;2.13;;
21488;SDS011;10906;45.194;5.684;2023-08-30T04:39:24;3.72;;;2.70;;
21488;SDS011;10906;45.194;5.684;2023-08-30T04:42:08;4.75;;;2.00;;
21488;SDS011;10906;45.194;5.684;2023-08-30T04:44:53;4.50;;;2.83;;
21488;SDS011;10906;45.194;5.684;2023-08-30T04:47:38;3.05;;;2.30;;
21488;SDS011;10906;45.194;5.684;2023-08-30T04:50:23;2.55;;;2.30;;
21488;SDS011;10906;45.194;5.684;2023-08-30T04:53:08;5.90;;;2.53;;
21488;SDS011;10906;45.194;5.684;2023-08-30T04:55:52;8.02;;;2.40;;
21488;SDS011;10906;45.194;5.684;2023-08-30T04:58:37;4.30;;;2.35;;
21488;SDS011;10906;45.194;5.684;2023-08-30T05:01:21;6.63;;;2.45;;
21488;SDS011;10906;45.194;5.684;2023-08-30T05:04:06;2.92;;;2.40;;
21488;SDS011;10906;45.194;5.684;2023-08-30T05:06:50;7.03;;;2.17;;
21488;SDS011;10906;45.194;5.684;2023-08-30T05:09:35;2.72;;;2.30;;
21488;SDS011;10906;45.194;5.684;2023-08-30T05:12:20;3.60;;;2.40;;
21488;SDS011;10906;45.194;5.684;2023-08-30T05:17:48;7.43;;;2.60;;
21488;SDS011;10906;45.194;5.684;2023-08-30T05:20:32;3.15;;;1.90;;
21488;SDS011;10906;45.194;5.684;2023-08-30T05:23:17;2.80;;;2.03;;
21488;SDS011;10906;45.194;5.684;2023-08-30T05:26:01;3.65;;;2.33;;
21488;SDS011;10906;45.194;5.684;2023-08-30T05:28:46;6.15;;;2.30;;
21488;SDS011;10906;45.194;5.684;2023-08-30T05:31:30;6.13;;;3.20;;
21488;SDS011;10906;45.194;5.684;2023-08-30T05:34:18;5.10;;;2.25;;
21488;SDS011;10906;45.194;5.684;2023-08-30T05:37:02;2.78;;;2.40;;
21488;SDS011;10906;45.194;5.684;2023-08-30T05:39:47;5.65;;;2.25;;
21488;SDS011;10906;45.194;5.684;2023-08-30T05:42:31;3.28;;;2.38;;
21488;SDS011;10906;45.194;5.684;2023-08-30T05:45:16;5.10;;;2.55;;
21488;SDS011;10906;45.194;5.684;2023-08-30T05:48:00;3.63;;;2.10;;
21488;SDS011;10906;45.194;5.684;2023-08-30T05:53:28;8.00;;;2.95;;
21488;SDS011;10906;45.194;5.684;2023-08-30T05:56:13;3.38;;;2.60;;
21488;SDS011;10906;45.194;5.684;2023-08-30T05:58:57;3.28;;;2.47;;
21488;SDS011;10906;45.194;5.684;2023-08-30T06:09:45;3.63;;;2.80;;
21488;SDS011;10906;45.194;5.684;2023-08-30T06:15:45;3.00;;;2.60;;
21488;SDS011;10906;45.194;5.684;2023-08-30T06:19:12;4.25;;;2.88;;
21488;SDS011;10906;45.194;5.684;2023-08-30T06:22:00;3.90;;;2.70;;
21488;SDS011;10906;45.194;5.684;2023-08-30T06:25:21;3.42;;;2.85;;
21488;SDS011;10906;45.194;5.684;2023-08-30T06:28:11;4.38;;;3.35;;
21488;SDS011;10906;45.194;5.684;2023-08-30T06:30:55;7.20;;;2.60;;
21488;SDS011;10906;45.194;5.684;2023-08-30T06:33:41;4.53;;;2.80;;
21488;SDS011;10906;45.194;5.684;2023-08-30T06:36:25;3.33;;;2.60;;
21488;SDS011;10906;45.194;5.684;2023-08-30T06:39:10;3.50;;;2.45;;
21488;SDS011;10906;45.194;5.684;2023-08-30T06:41:55;4.60;;;2.58;;
21488;SDS011;10906;45.194;5.684;2023-08-30T06:44:39;4.68;;;2.40;;
21488;SDS011;10906;45.194;5.684;2023-08-30T06:47:24;4.60;;;2.70;;
21488;SDS011;10906;45.194;5.684;2023-08-30T06:50:11;4.63;;;3.00;;
21488;SDS011;10906;45.194;5.684;2023-08-30T06:52:56;8.30;;;2.55;;
21488;SDS011;10906;45.194;5.684;2023-08-30T06:55:40;4.28;;;2.45;;
21488;SDS011;10906;45.194;5.684;2023-08-30T06:58:51;4.78;;;2.55;;
21488;SDS011;10906;45.194;5.684;2023-08-30T07:05:04;6.35;;;2.83;;
21488;SDS011;10906;45.194;5.684;2023-08-30T07:07:53;6.63;;;2.60;;
21488;SDS011;10906;45.194;5.684;2023-08-30T07:10:37;7.18;;;2.85;;
21488;SDS011;10906;45.194;5.684;2023-08-30T07:13:25;4.07;;;2.35;;
21488;SDS011;10906;45.194;5.684;2023-08-30T07:16:12;5.65;;;2.70;;
21488;SDS011;10906;45.194;5.684;2023-08-30T07:19:00;6.22;;;2.40;;
21488;SDS011;10906;45.194;5.684;2023-08-30T07:22:00;5.72;;;2.83;;
21488;SDS011;10906;45.194;5.684;2023-08-30T07:24:45;5.20;;;2.90;;
21488;SDS011;10906;45.194;5.684;2023-08-30T07:27:32;5.63;;;2.50;;
21488;SDS011;10906;45.194;5.684;2023-08-30T07:30:20;3.33;;;2.45;;
21488;SDS011;10906;45.194;5.684;2023-08-30T07:33:04;3.35;;;2.50;;
21488;SDS011;10906;45.194;5.684;2023-08-30T07:35:49;3.40;;;2.80;;
21488;SDS011;10906;45.194;5.684;2023-08-30T07:38:33;4.28;;;2.63;;
21488;SDS011;10906;45.194;5.684;2023-08-30T07:41:18;2.83;;;2.33;;
21488;SDS011;10906;45.194;5.684;2023-08-30T07:44:03;4.32;;;2.63;;
21488;SDS011;10906;45.194;5.684;2023-08-30T07:46:47;3.85;;;2.40;;
21488;SDS011;10906;45.194;5.684;2023-08-30T07:49:32;5.15;;;2.65;;
21488;SDS011;10906;45.194;5.684;2023-08-30T07:52:17;5.10;;;2.53;;
21488;SDS011;10906;45.194;5.684;2023-08-30T07:55:05;5.20;;;2.30;;
21488;SDS011;10906;45.194;5.684;2023-08-30T08:01:30;3.40;;;2.35;;
21488;SDS011;10906;45.194;5.684;2023-08-30T08:33:22;6.60;;;2.60;;
21488;SDS011;10906;45.194;5.684;2023-08-30T08:38:43;3.05;;;2.53;;
21488;SDS011;10906;45.194;5.684;2023-08-30T08:56:16;3.45;;;2.30;;
21488;SDS011;10906;45.194;5.684;2023-08-30T08:59:11;4.38;;;2.10;;
21488;SDS011;10906;45.194;5.684;2023-08-30T09:01:55;3.83;;;2.40;;
21488;SDS011;10906;45.194;5.684;2023-08-30T09:04:43;5.15;;;2.75;;
21488;SDS011;10906;45.194;5.684;2023-08-30T09:53:53;5.32;;;2.47;;
21488;SDS011;10906;45.194;5.684;2023-08-30T09:56:43;3.35;;;1.90;;
21488;SDS011;10906;45.194;5.684;2023-08-30T09:59:28;4.55;;;2.70;;
21488;SDS011;10906;45.194;5.684;2023-08-30T10:02:13;3.08;;;2.67;;
21488;SDS011;10906;45.194;5.684;2023-08-30T10:04:58;4.72;;;3.30;;
21488;SDS011;10906;45.194;5.684;2023-08-30T10:07:43;5.60;;;3.50;;
21488;SDS011;10906;45.194;5.684;2023-08-30T10:10:28;5.47;;;3.53;;
21488;SDS011;10906;45.194;5.684;2023-08-30T10:13:14;5.85;;;3.70;;
21488;SDS011;10906;45.194;5.684;2023-08-30T10:16:15;7.53;;;3.15;;
21488;SDS011;10906;45.194;5.684;2023-08-30T10:22:50;5.72;;;3.13;;
21488;SDS011;10906;45.194;5.684;2023-08-30T10:29:19;3.17;;;2.50;;
21488;SDS011;10906;45.194;5.684;2023-08-30T10:32:07;3.75;;;2.20;;
21488;SDS011;10906;45.194;5.684;2023-08-30T10:35:03;2.28;;;1.85;;
21488;SDS011;10906;45.194;5.684;2023-08-30T10:40:25;2.40;;;1.90;;
21488;SDS011;10906;45.194;5.684;2023-08-30T10:46:45;2.45;;;2.10;;
21488;SDS011;10906;45.194;5.684;2023-08-30T10:50:42;2.65;;;2.00;;
21488;SDS011;10906;45.194;5.684;2023-08-30T10:53:32;2.20;;;1.77;;
21488;SDS011;10906;45.194;5.684;2023-08-30T10:56:20;2.88;;;1.98;;
21488;SDS011;10906;45.194;5.684;2023-08-30T11:02:56;2.10;;;1.88;;
21488;SDS011;10906;45.194;5.684;2023-08-30T11:16:21;4.18;;;1.73;;
21488;SDS011;10906;45.194;5.684;2023-08-30T11:34:56;1.98;;;1.77;;
21488;SDS011;10906;45.194;5.684;2023-08-30T11:37:42;3.70;;;1.45;;
21488;SDS011;10906;45.194;5.684;2023-08-30T11:40:35;4.05;;;1.70;;
21488;SDS011;10906;45.194;5.684;2023-08-30T11:43:20;2.78;;;1.60;;
21488;SDS011;10906;45.194;5.684;2023-08-30T11:46:05;2.05;;;1.60;;
21488;SDS011;10906;45.194;5.684;2023-08-30T11:48:50;2.10;;;1.73;;
21488;SDS011;10906;45.194;5.684;2023-08-30T11:51:36;1.77;;;1.50;;
21488;SDS011;10906;45.194;5.684;2023-08-30T11:54:20;2.75;;;1.65;;
21488;SDS011;10906;45.194;5.684;2023-08-30T11:57:05;2.17;;;1.40;;
21488;SDS011;10906;45.194;5.684;2023-08-30T11:59:49;3.22;;;1.60;;
21488;SDS011;10906;45.194;5.684;2023-08-30T12:02:34;2.80;;;1.80;;
21488;SDS011;10906;45.194;5.684;2023-08-30T12:05:22;2.33;;;1.50;;
21488;SDS011;10906;45.194;5.684;2023-08-30T12:08:16;3.63;;;1.77;;
21488;SDS011;10906;45.194;5.684;2023-08-30T12:11:02;3.28;;;1.60;;
21488;SDS011;10906;45.194;5.684;2023-08-30T12:13:46;5.40;;;1.70;;
21488;SDS011;10906;45.194;5.684;2023-08-30T12:16:31;3.35;;;1.70;;
21488;SDS011;10906;45.194;5.684;2023-08-30T12:19:16;1.50;;;1.40;;
21488;SDS011;10906;45.194;5.684;2023-08-30T12:22:04;1.42;;;1.33;;
21488;SDS011;10906;45.194;5.684;2023-08-30T12:24:49;1.67;;;1.55;;
21488;SDS011;10906;45.194;5.684;2023-08-30T12:27:33;3.15;;;1.67;;
21488;SDS011;10906;45.194;5.684;2023-08-30T12:30:18;2.28;;;1.70;;
21488;SDS011;10906;45.194;5.684;2023-08-30T12:33:03;1.90;;;1.80;;
21488;SDS011;10906;45.194;5.684;2023-08-30T12:35:48;4.40;;;1.75;;
21488;SDS011;10906;45.194;5.684;2023-08-30T12:38:35;5.45;;;1.40;;
21488;SDS011;10906;45.194;5.684;2023-08-30T12:41:19;3.00;;;1.55;;
21488;SDS011;10906;45.194;5.684;2023-08-30T12:44:06;2.45;;;1.45;;
21488;SDS011;10906;45.194;5.684;2023-08-30T12:46:51;1.58;;;1.35;;
21488;SDS011;10906;45.194;5.684;2023-08-30T12:49:35;2.40;;;2.00;;
21488;SDS011;10906;45.194;5.684;2023-08-30T12:52:20;1.48;;;1.30;;
21488;SDS011;10906;45.194;5.684;2023-08-30T12:55:04;3.63;;;1.42;;
21488;SDS011;10906;45.194;5.684;2023-08-30T12:57:51;1.40;;;1.30;;
21488;SDS011;10906;45.194;5.684;2023-08-30T13:00:36;3.78;;;1.50;;
21488;SDS011;10906;45.194;5.684;2023-08-30T13:03:20;2.65;;;1.45;;
21488;SDS011;10906;45.194;5.684;2023-08-30T13:06:05;2.78;;;1.50;;
21488;SDS011;10906;45.194;5.684;2023-08-30T13:08:50;2.97;;;1.83;;
21488;SDS011;10906;45.194;5.684;2023-08-30T13:11:34;2.17;;;1.50;;
21488;SDS011;10906;45.194;5.684;2023-08-30T13:14:19;2.45;;;1.63;;
21488;SDS011;10906;45.194;5.684;2023-08-30T13:17:03;2.35;;;1.52;;
21488;SDS011;10906;45.194;5.684;2023-08-30T13:19:48;2.92;;;1.50;;
21488;SDS011;10906;45.194;5.684;2023-08-30T13:22:33;2.33;;;1.88;;
21488;SDS011;10906;45.194;5.684;2023-08-30T13:25:17;2.05;;;1.63;;
21488;SDS011;10906;45.194;5.684;2023-08-30T13:28:02;1.60;;;1.50;;
21488;SDS011;10906;45.194;5.684;2023-08-30T13:30:48;2.05;;;1.50;;
21488;SDS011;10906;45.194;5.684;2023-08-30T13:33:35;2.25;;;1.65;;
21488;SDS011;10906;45.194;5.684;2023-08-30T13:36:21;1.85;;;1.60;;
21488;SDS011;10906;45.194;5.684;2023-08-30T13:39:06;2.67;;;1.77;;
21488;SDS011;10906;45.194;5.684;2023-08-30T13:41:51;3.35;;;1.80;;
21488;SDS011;10906;45.194;5.684;2023-08-30T13:44:35;3.38;;;1.70;;
21488;SDS011;10906;45.194;5.684;2023-08-30T13:47:25;1.90;;;1.52;;
21488;SDS011;10906;45.194;5.684;2023-08-30T13:50:09;1.52;;;1.42;;
21488;SDS011;10906;45.194;5.684;2023-08-30T13:52:58;4.93;;;1.63;;
21488;SDS011;10906;45.194;5.684;2023-08-30T13:55:46;3.25;;;1.60;;
21488;SDS011;10906;45.194;5.684;2023-08-30T13:58:33;2.33;;;1.77;;
21488;SDS011;10906;45.194;5.684;2023-08-30T14:01:18;4.85;;;1.80;;
21488;SDS011;10906;45.194;5.684;2023-08-30T14:04:02;2.88;;;1.70;;
21488;SDS011;10906;45.194;5.684;2023-08-30T14:06:48;1.92;;;1.40;;
21488;SDS011;10906;45.194;5.684;2023-08-30T14:09:33;3.30;;;1.52;;
21488;SDS011;10906;45.194;5.684;2023-08-30T14:12:18;1.98;;;1.77;;
21488;SDS011;10906;45.194;5.684;2023-08-30T14:15:02;3.45;;;2.00;;
21488;SDS011;10906;45.194;5.684;2023-08-30T14:17:47;2.13;;;1.58;;
21488;SDS011;10906;45.194;5.684;2023-08-30T14:20:32;2.40;;;1.58;;
21488;SDS011;10906;45.194;5.684;2023-08-30T14:23:16;3.20;;;1.73;;
21488;SDS011;10906;45.194;5.684;2023-08-30T14:26:05;2.05;;;1.42;;
21488;SDS011;10906;45.194;5.684;2023-08-30T14:28:53;1.65;;;1.40;;
21488;SDS011;10906;45.194;5.684;2023-08-30T14:31:40;2.33;;;1.48;;
21488;SDS011;10906;45.194;5.684;2023-08-30T14:34:25;2.92;;;1.45;;
21488;SDS011;10906;45.194;5.684;2023-08-30T14:37:11;5.35;;;1.67;;
21488;SDS011;10906;45.194;5.684;2023-08-30T14:39:56;1.60;;;1.50;;
21488;SDS011;10906;45.194;5.684;2023-08-30T14:42:40;1.50;;;1.40;;
21488;SDS011;10906;45.194;5.684;2023-08-30T14:45:25;1.90;;;1.58;;
21488;SDS011;10906;45.194;5.684;2023-08-30T14:48:09;3.05;;;1.30;;
21488;SDS011;10906;45.194;5.684;2023-08-30T14:50:54;3.03;;;1.50;;
21488;SDS011;10906;45.194;5.684;2023-08-30T14:53:39;5.25;;;1.95;;
21488;SDS011;10906;45.194;5.684;2023-08-30T14:56:23;6.07;;;1.63;;
21488;SDS011;10906;45.194;5.684;2023-08-30T14:59:09;4.05;;;1.60;;
21488;SDS011;10906;45.194;5.684;2023-08-30T15:01:53;4.43;;;1.90;;
21488;SDS011;10906;45.194;5.684;2023-08-30T15:04:37;3.00;;;1.90;;
21488;SDS011;10906;45.194;5.684;2023-08-30T15:07:26;5.97;;;1.70;;
21488;SDS011;10906;45.194;5.684;2023-08-30T15:10:13;7.15;;;1.63;;
21488;SDS011;10906;45.194;5.684;2023-08-30T15:12:57;3.75;;;1.75;;
21488;SDS011;10906;45.194;5.684;2023-08-30T15:15:42;3.15;;;2.05;;
21488;SDS011;10906;45.194;5.684;2023-08-30T15:18:29;5.78;;;1.90;;
21488;SDS011;10906;45.194;5.684;2023-08-30T15:23:49;2.97;;;1.80;;
21488;SDS011;10906;45.194;5.684;2023-08-30T15:46:21;2.50;;;2.00;;
21488;SDS011;10906;45.194;5.684;2023-08-30T15:49:33;2.42;;;1.75;;
21488;SDS011;10906;45.194;5.684;2023-08-30T15:52:34;4.70;;;2.13;;
21488;SDS011;10906;45.194;5.684;2023-08-30T15:55:31;2.67;;;1.95;;
21488;SDS011;10906;45.194;5.684;2023-08-30T16:28:14;2.85;;;2.15;;
21488;SDS011;10906;45.194;5.684;2023-08-30T16:31:05;4.10;;;2.00;;
21488;SDS011;10906;45.194;5.684;2023-08-30T16:33:50;2.40;;;1.98;;
21488;SDS011;10906;45.194;5.684;2023-08-30T16:36:35;1.85;;;1.60;;
21488;SDS011;10906;45.194;5.684;2023-08-30T16:39:20;3.10;;;1.95;;
21488;SDS011;10906;45.194;5.684;2023-08-30T16:42:05;2.80;;;1.90;;
21488;SDS011;10906;45.194;5.684;2023-08-30T16:44:50;4.55;;;2.15;;
21488;SDS011;10906;45.194;5.684;2023-08-30T16:47:34;3.88;;;2.22;;
21488;SDS011;10906;45.194;5.684;2023-08-30T16:50:20;5.60;;;1.80;;
21488;SDS011;10906;45.194;5.684;2023-08-30T16:53:05;3.33;;;2.25;;
21488;SDS011;10906;45.194;5.684;2023-08-30T16:55:54;2.05;;;1.80;;
21488;SDS011;10906;45.194;5.684;2023-08-30T16:58:39;4.22;;;1.92;;
21488;SDS011;10906;45.194;5.684;2023-08-30T17:01:24;2.90;;;1.90;;
21488;SDS011;10906;45.194;5.684;2023-08-30T17:04:08;4.03;;;2.30;;
21488;SDS011;10906;45.194;5.684;2023-08-30T17:06:53;2.20;;;1.80;;
21488;SDS011;10906;45.194;5.684;2023-08-30T17:09:42;2.75;;;1.80;;
21488;SDS011;10906;45.194;5.684;2023-08-30T17:12:27;4.00;;;2.15;;
21488;SDS011;10906;45.194;5.684;2023-08-30T17:15:12;2.10;;;1.90;;
21488;SDS011;10906;45.194;5.684;2023-08-30T17:17:56;3.17;;;1.67;;
21488;SDS011;10906;45.194;5.684;2023-08-30T17:20:41;3.55;;;1.80;;
21488;SDS011;10906;45.194;5.684;2023-08-30T17:23:25;2.63;;;1.88;;
21488;SDS011;10906;45.194;5.684;2023-08-30T17:26:09;4.63;;;2.05;;
21488;SDS011;10906;45.194;5.684;2023-08-30T17:28:54;2.28;;;2.00;;
21488;SDS011;10906;45.194;5.684;2023-08-30T17:31:38;2.85;;;1.67;;
21488;SDS011;10906;45.194;5.684;2023-08-30T17:34:22;3.42;;;1.75;;
21488;SDS011;10906;45.194;5.684;2023-08-30T17:37:06;2.45;;;1.70;;
21488;SDS011;10906;45.194;5.684;2023-08-30T17:39:54;3.83;;;1.88;;
21488;SDS011;10906;45.194;5.684;2023-08-30T17:42:38;4.00;;;2.83;;
21488;SDS011;10906;45.194;5.684;2023-08-30T17:45:23;2.63;;;2.15;;
21488;SDS011;10906;45.194;5.684;2023-08-30T17:48:08;3.00;;;2.05;;
21488;SDS011;10906;45.194;5.684;2023-08-30T17:50:52;4.32;;;2.03;;
21488;SDS011;10906;45.194;5.684;2023-08-30T17:53:36;2.13;;;1.92;;
21488;SDS011;10906;45.194;5.684;2023-08-30T17:56:22;3.40;;;1.65;;
21488;SDS011;10906;45.194;5.684;2023-08-30T17:59:07;1.88;;;1.67;;
21488;SDS011;10906;45.194;5.684;2023-08-30T18:01:52;3.13;;;2.10;;
21488;SDS011;10906;45.194;5.684;2023-08-30T18:04:37;2.08;;;1.70;;
21488;SDS011;10906;45.194;5.684;2023-08-30T18:07:22;4.30;;;2.08;;
21488;SDS011;10906;45.194;5.684;2023-08-30T18:10:07;2.83;;;2.30;;
21488;SDS011;10906;45.194;5.684;2023-08-30T18:12:52;6.47;;;1.95;;
21488;SDS011;10906;45.194;5.684;2023-08-30T18:15:36;3.97;;;1.77;;
21488;SDS011;10906;45.194;5.684;2023-08-30T18:18:21;2.58;;;1.92;;
21488;SDS011;10906;45.194;5.684;2023-08-30T18:21:05;4.68;;;2.03;;
21488;SDS011;10906;45.194;5.684;2023-08-30T18:26:57;3.38;;;2.10;;
21488;SDS011;10906;45.194;5.684;2023-08-30T18:29:41;2.15;;;1.88;;
21488;SDS011;10906;45.194;5.684;2023-08-30T18:32:26;2.22;;;2.03;;
21488;SDS011;10906;45.194;5.684;2023-08-30T18:35:11;2.08;;;1.63;;
21488;SDS011;10906;45.194;5.684;2023-08-30T18:37:56;2.13;;;1.60;;
21488;SDS011;10906;45.194;5.684;2023-08-30T18:40:40;2.40;;;2.10;;
21488;SDS011;10906;45.194;5.684;2023-08-30T18:43:25;2.75;;;1.88;;
21488;SDS011;10906;45.194;5.684;2023-08-30T18:46:09;4.22;;;2.00;;
21488;SDS011;10906;45.194;5.684;2023-08-30T18:48:54;6.22;;;1.98;;
21488;SDS011;10906;45.194;5.684;2023-08-30T18:51:39;5.75;;;2.72;;
21488;SDS011;10906;45.194;5.684;2023-08-30T18:57:07;5.72;;;2.92;;
21488;SDS011;10906;45.194;5.684;2023-08-30T18:59:53;5.63;;;2.47;;
21488;SDS011;10906;45.194;5.684;2023-08-30T19:02:37;4.60;;;2.20;;
21488;SDS011;10906;45.194;5.684;2023-08-30T19:05:22;4.95;;;2.00;;
21488;SDS011;10906;45.194;5.684;2023-08-30T19:08:06;3.25;;;2.25;;
21488;SDS011;10906;45.194;5.684;2023-08-30T19:10:51;3.05;;;2.30;;
21488;SDS011;10906;45.194;5.684;2023-08-30T19:13:36;6.03;;;2.38;;
21488;SDS011;10906;45.194;5.684;2023-08-30T19:16:21;5.35;;;2.28;;
21488;SDS011;10906;45.194;5.684;2023-08-30T19:19:06;3.92;;;2.08;;
21488;SDS011;10906;45.194;5.684;2023-08-30T19:21:51;2.75;;;2.15;;
21488;SDS011;10906;45.194;5.684;2023-08-30T19:24:36;4.13;;;2.13;;
21488;SDS011;10906;45.194;5.684;2023-08-30T19:27:20;5.20;;;2.10;;
21488;SDS011;10906;45.194;5.684;2023-08-30T19:30:05;3.38;;;2.13;;
21488;SDS011;10906;45.194;5.684;2023-08-30T19:32:50;2.85;;;1.85;;
21488;SDS011;10906;45.194;5.684;2023-08-30T19:35:35;2.47;;;2.00;;
21488;SDS011;10906;45.194;5.684;2023-08-30T19:38:20;3.72;;;2.40;;
21488;SDS011;10906;45.194;5.684;2023-08-30T19:41:07;4.93;;;2.50;;
21488;SDS011;10906;45.194;5.684;2023-08-30T19:43:53;5.75;;;2.70;;
21488;SDS011;10906;45.194;5.684;2023-08-30T19:46:38;6.70;;;3.20;;
21488;SDS011;10906;45.194;5.684;2023-08-30T19:49:23;3.75;;;2.33;;
21488;SDS011;10906;45.194;5.684;2023-08-30T19:52:08;3.30;;;3.00;;
21488;SDS011;10906;45.194;5.684;2023-08-30T19:54:52;5.30;;;2.72;;
21488;SDS011;10906;45.194;5.684;2023-08-30T19:57:38;5.32;;;2.88;;
21488;SDS011;10906;45.194;5.684;2023-08-30T20:00:23;4.03;;;2.70;;
21488;SDS011;10906;45.194;5.684;2023-08-30T20:07:05;7.85;;;2.78;;
21488;SDS011;10906;45.194;5.684;2023-08-30T20:09:50;5.18;;;2.40;;
21488;SDS011;10906;45.194;5.684;2023-08-30T20:12:34;5.47;;;2.25;;
21488;SDS011;10906;45.194;5.684;2023-08-30T20:15:19;8.77;;;2.53;;
21488;SDS011;10906;45.194;5.684;2023-08-30T20:18:07;5.32;;;2.65;;
21488;SDS011;10906;45.194;5.684;2023-08-30T20:29:04;5.57;;;2.75;;
21488;SDS011;10906;45.194;5.684;2023-08-30T20:39:20;3.00;;;2.50;;
21488;SDS011;10906;45.194;5.684;2023-08-30T20:42:04;5.00;;;2.33;;
21488;SDS011;10906;45.194;5.684;2023-08-30T20:44:49;3.97;;;2.60;;
21488;SDS011;10906;45.194;5.684;2023-08-30T20:47:33;3.90;;;2.75;;
21488;SDS011;10906;45.194;5.684;2023-08-30T20:50:18;5.88;;;3.13;;
21488;SDS011;10906;45.194;5.684;2023-08-30T20:53:03;4.75;;;3.00;;
21488;SDS011;10906;45.194;5.684;2023-08-30T20:55:49;4.75;;;2.95;;
21488;SDS011;10906;45.194;5.684;2023-08-30T21:01:17;6.85;;;2.78;;
21488;SDS011;10906;45.194;5.684;2023-08-30T21:04:02;5.70;;;2.40;;
21488;SDS011;10906;45.194;5.684;2023-08-30T21:06:47;3.70;;;2.63;;
21488;SDS011;10906;45.194;5.684;2023-08-30T21:09:31;6.88;;;2.90;;
21488;SDS011;10906;45.194;5.684;2023-08-30T21:12:15;3.42;;;2.40;;
21488;SDS011;10906;45.194;5.684;2023-08-30T21:14:59;9.25;;;4.20;;
21488;SDS011;10906;45.194;5.684;2023-08-30T21:17:44;5.22;;;3.13;;
21488;SDS011;10906;45.194;5.684;2023-08-30T21:20:29;4.32;;;2.70;;
21488;SDS011;10906;45.194;5.684;2023-08-30T21:23:16;4.30;;;2.60;;
21488;SDS011;10906;45.194;5.684;2023-08-30T21:26:00;2.95;;;2.55;;
21488;SDS011;10906;45.194;5.684;2023-08-30T21:28:45;4.18;;;2.40;;
21488;SDS011;10906;45.194;5.684;2023-08-30T21:31:31;3.10;;;2.65;;
21488;SDS011;10906;45.194;5.684;2023-08-30T21:34:15;3.13;;;2.47;;
21488;SDS011;10906;45.194;5.684;2023-08-30T21:37:00;4.40;;;2.63;;
21488;SDS011;10906;45.194;5.684;2023-08-30T21:39:44;3.05;;;2.35;;
21488;SDS011;10906;45.194;5.684;2023-08-30T21:42:31;4.00;;;2.33;;
21488;SDS011;10906;45.194;5.684;2023-08-30T21:45:15;3.08;;;2.58;;
21488;SDS011;10906;45.194;5.684;2023-08-30T21:48:00;4.28;;;2.63;;
21488;SDS011;10906;45.194;5.684;2023-08-30T21:50:44;3.78;;;2.30;;
21488;SDS011;10906;45.194;5.684;2023-08-30T21:53:29;5.07;;;2.78;;
21488;SDS011;10906;45.194;5.684;2023-08-30T21:56:14;5.38;;;2.72;;
21488;SDS011;10906;45.194;5.684;2023-08-30T21:58:58;4.57;;;2.60;;
